sensor_id;sensor_type;location;lat;lon;timestamp;P1;durP1;ratioP1;P2;durP2;ratioP2
77166;SDS011;66141;7.324;79.980;2023-01-16T00:00:00;9.57;;;5.75;;
77166;SDS011;66141;7.324;79.980;2023-01-16T00:00:06;9.23;;;5.77;;
77166;SDS011;66141;7.324;79.980;2023-01-16T00:00:12;9.72;;;5.92;;
77166;SDS011;66141;7.324;79.980;2023-01-16T00:00:18;9.67;;;5.77;;
77166;SDS011;66141;7.324;79.980;2023-01-16T00:00:24;8.97;;;5.50;;
77166;SDS011;66141;7.324;79.980;2023-01-16T00:00:30;9.18;;;5.20;;
77166;SDS011;66141;7.324;79.980;2023-01-16T00:00:36;9.05;;;5.28;;
77166;SDS011;66141;7.324;79.980;2023-01-16T00:00:42;8.60;;;5.13;;
77166;SDS011;66141;7.324;79.980;2023-01-16T00:00:48;8.52;;;5.25;;
77166;SDS011;66141;7.324;79.980;2023-01-16T00:00:54;8.27;;;5.27;;
77166;SDS011;66141;7.324;79.980;2023-01-16T00:01:01;7.77;;;5.40;;
77166;SDS011;66141;7.324;79.980;2023-01-16T00:01:07;8.50;;;5.43;;
77166;SDS011;66141;7.324;79.980;2023-01-16T00:01:13;8.37;;;5.43;;
77166;SDS011;66141;7.324;79.980;2023-01-16T00:01:19;8.77;;;5.47;;
77166;SDS011;66141;7.324;79.980;2023-01-16T00:01:26;8.86;;;5.40;;
77166;SDS011;66141;7.324;79.980;2023-01-16T00:01:32;8.57;;;5.17;;
77166;SDS011;66141;7.324;79.980;2023-01-16T00:01:38;8.43;;;5.10;;
77166;SDS011;66141;7.324;79.980;2023-01-16T00:01:44;8.23;;;4.95;;
77166;SDS011;66141;7.324;79.980;2023-01-16T00:01:51;7.83;;;4.83;;
77166;SDS011;66141;7.324;79.980;2023-01-16T00:01:57;7.70;;;4.86;;
77166;SDS011;66141;7.324;79.980;2023-01-16T00:02:03;8.23;;;4.70;;
77166;SDS011;66141;7.324;79.980;2023-01-16T00:02:09;7.97;;;4.50;;
77166;SDS011;66141;7.324;79.980;2023-01-16T00:02:15;8.48;;;4.72;;
77166;SDS011;66141;7.324;79.980;2023-01-16T00:02:21;7.63;;;4.55;;
77166;SDS011;66141;7.324;79.980;2023-01-16T00:02:26;7.72;;;4.70;;
77166;SDS011;66141;7.324;79.980;2023-01-16T00:02:32;7.47;;;4.93;;
77166;SDS011;66141;7.324;79.980;2023-01-16T00:02:38;7.65;;;5.43;;
77166;SDS011;66141;7.324;79.980;2023-01-16T00:02:44;7.28;;;5.38;;
77166;SDS011;66141;7.324;79.980;2023-01-16T00:02:50;7.55;;;5.53;;
77166;SDS011;66141;7.324;79.980;2023-01-16T00:02:55;8.23;;;5.65;;
77166;SDS011;66141;7.324;79.980;2023-01-16T00:03:01;8.05;;;5.50;;
77166;SDS011;66141;7.324;79.980;2023-01-16T00:03:07;7.47;;;5.10;;
77166;SDS011;66141;7.324;79.980;2023-01-16T00:03:13;7.43;;;5.05;;
77166;SDS011;66141;7.324;79.980;2023-01-16T00:03:19;7.68;;;5.20;;
77166;SDS011;66141;7.324;79.980;2023-01-16T00:03:24;7.80;;;5.20;;
77166;SDS011;66141;7.324;79.980;2023-01-16T00:03:30;7.93;;;5.30;;
77166;SDS011;66141;7.324;79.980;2023-01-16T00:03:36;8.30;;;5.47;;
77166;SDS011;66141;7.324;79.980;2023-01-16T00:03:42;8.57;;;5.50;;
77166;SDS011;66141;7.324;79.980;2023-01-16T00:03:48;8.60;;;5.45;;
77166;SDS011;66141;7.324;79.980;2023-01-16T00:03:54;8.32;;;5.20;;
77166;SDS011;66141;7.324;79.980;2023-01-16T00:04:00;8.20;;;5.00;;
77166;SDS011;66141;7.324;79.980;2023-01-16T00:04:05;7.60;;;4.77;;
77166;SDS011;66141;7.324;79.980;2023-01-16T00:04:11;8.10;;;4.88;;
77166;SDS011;66141;7.324;79.980;2023-01-16T00:04:17;8.20;;;4.72;;
77166;SDS011;66141;7.324;79.980;2023-01-16T00:04:23;8.57;;;4.72;;
77166;SDS011;66141;7.324;79.980;2023-01-16T00:04:29;8.13;;;4.78;;
77166;SDS011;66141;7.324;79.980;2023-01-16T00:04:35;8.57;;;4.78;;
77166;SDS011;66141;7.324;79.980;2023-01-16T00:04:40;8.70;;;4.90;;
77166;SDS011;66141;7.324;79.980;2023-01-16T00:04:46;8.77;;;4.93;;
77166;SDS011;66141;7.324;79.980;2023-01-16T00:04:52;8.60;;;4.93;;
77166;SDS011;66141;7.324;79.980;2023-01-16T00:04:58;8.70;;;5.03;;
77166;SDS011;66141;7.324;79.980;2023-01-16T00:05:04;8.83;;;5.13;;
77166;SDS011;66141;7.324;79.980;2023-01-16T00:05:10;8.65;;;4.97;;
77166;SDS011;66141;7.324;79.980;2023-01-16T00:05:15;8.63;;;4.93;;
77166;SDS011;66141;7.324;79.980;2023-01-16T00:05:21;9.55;;;5.07;;
77166;SDS011;66141;7.324;79.980;2023-01-16T00:05:27;9.90;;;5.15;;
77166;SDS011;66141;7.324;79.980;2023-01-16T00:05:33;9.32;;;4.97;;
77166;SDS011;66141;7.324;79.980;2023-01-16T00:05:39;9.53;;;4.97;;
77166;SDS011;66141;7.324;79.980;2023-01-16T00:05:44;9.02;;;4.95;;
77166;SDS011;66141;7.324;79.980;2023-01-16T00:05:50;8.52;;;5.05;;
77166;SDS011;66141;7.324;79.980;2023-01-16T00:05:56;7.85;;;4.93;;
77166;SDS011;66141;7.324;79.980;2023-01-16T00:06:02;7.90;;;4.90;;
77166;SDS011;66141;7.324;79.980;2023-01-16T00:06:08;7.87;;;5.03;;
77166;SDS011;66141;7.324;79.980;2023-01-16T00:06:14;7.83;;;4.90;;
77166;SDS011;66141;7.324;79.980;2023-01-16T00:06:20;7.33;;;4.77;;
77166;SDS011;66141;7.324;79.980;2023-01-16T00:06:26;7.47;;;4.72;;
77166;SDS011;66141;7.324;79.980;2023-01-16T00:06:32;7.28;;;4.70;;
77166;SDS011;66141;7.324;79.980;2023-01-16T00:06:39;7.04;;;4.68;;
77166;SDS011;66141;7.324;79.980;2023-01-16T00:06:45;7.72;;;4.80;;
77166;SDS011;66141;7.324;79.980;2023-01-16T00:06:52;8.40;;;5.03;;
77166;SDS011;66141;7.324;79.980;2023-01-16T00:06:58;8.67;;;4.97;;
77166;SDS011;66141;7.324;79.980;2023-01-16T00:07:03;8.90;;;5.18;;
77166;SDS011;66141;7.324;79.980;2023-01-16T00:07:09;8.77;;;5.03;;
77166;SDS011;66141;7.324;79.980;2023-01-16T00:07:15;8.45;;;5.15;;
77166;SDS011;66141;7.324;79.980;2023-01-16T00:07:21;8.40;;;5.28;;
77166;SDS011;66141;7.324;79.980;2023-01-16T00:07:27;8.70;;;5.25;;
77166;SDS011;66141;7.324;79.980;2023-01-16T00:07:32;7.95;;;5.00;;
77166;SDS011;66141;7.324;79.980;2023-01-16T00:07:38;8.23;;;5.20;;
77166;SDS011;66141;7.324;79.980;2023-01-16T00:07:44;8.15;;;5.10;;
77166;SDS011;66141;7.324;79.980;2023-01-16T00:07:50;7.22;;;4.72;;
77166;SDS011;66141;7.324;79.980;2023-01-16T00:07:56;7.15;;;4.82;;
77166;SDS011;66141;7.324;79.980;2023-01-16T00:08:02;7.97;;;4.97;;
77166;SDS011;66141;7.324;79.980;2023-01-16T00:08:08;7.90;;;4.72;;
77166;SDS011;66141;7.324;79.980;2023-01-16T00:08:14;7.90;;;4.75;;
77166;SDS011;66141;7.324;79.980;2023-01-16T00:08:20;7.95;;;4.93;;
77166;SDS011;66141;7.324;79.980;2023-01-16T00:08:26;7.68;;;4.90;;
77166;SDS011;66141;7.324;79.980;2023-01-16T00:08:31;7.33;;;4.97;;
77166;SDS011;66141;7.324;79.980;2023-01-16T00:08:37;7.90;;;5.18;;
77166;SDS011;66141;7.324;79.980;2023-01-16T00:08:43;8.05;;;5.20;;
77166;SDS011;66141;7.324;79.980;2023-01-16T00:08:49;7.93;;;4.97;;
77166;SDS011;66141;7.324;79.980;2023-01-16T00:08:55;8.02;;;5.00;;
77166;SDS011;66141;7.324;79.980;2023-01-16T00:09:02;8.57;;;5.25;;
77166;SDS011;66141;7.324;79.980;2023-01-16T00:09:08;7.30;;;5.03;;
77166;SDS011;66141;7.324;79.980;2023-01-16T00:09:13;7.33;;;5.00;;
77166;SDS011;66141;7.324;79.980;2023-01-16T00:09:19;7.50;;;5.20;;
77166;SDS011;66141;7.324;79.980;2023-01-16T00:09:25;7.60;;;5.35;;
77166;SDS011;66141;7.324;79.980;2023-01-16T00:09:31;7.13;;;5.15;;
77166;SDS011;66141;7.324;79.980;2023-01-16T00:09:37;7.32;;;5.18;;
77166;SDS011;66141;7.324;79.980;2023-01-16T00:09:43;7.23;;;5.23;;
77166;SDS011;66141;7.324;79.980;2023-01-16T00:09:48;7.00;;;4.97;;
77166;SDS011;66141;7.324;79.980;2023-01-16T00:09:54;7.05;;;4.72;;
77166;SDS011;66141;7.324;79.980;2023-01-16T00:10:00;7.43;;;4.88;;
77166;SDS011;66141;7.324;79.980;2023-01-16T00:10:06;7.82;;;5.00;;
77166;SDS011;66141;7.324;79.980;2023-01-16T00:10:12;8.53;;;5.00;;
77166;SDS011;66141;7.324;79.980;2023-01-16T00:10:18;8.50;;;5.00;;
77166;SDS011;66141;7.324;79.980;2023-01-16T00:10:24;8.48;;;5.05;;
77166;SDS011;66141;7.324;79.980;2023-01-16T00:10:30;7.97;;;4.88;;
77166;SDS011;66141;7.324;79.980;2023-01-16T00:10:35;7.55;;;4.80;;
77166;SDS011;66141;7.324;79.980;2023-01-16T00:10:42;7.20;;;4.82;;
77166;SDS011;66141;7.324;79.980;2023-01-16T00:10:48;7.50;;;4.90;;
77166;SDS011;66141;7.324;79.980;2023-01-16T00:10:54;7.53;;;4.80;;
77166;SDS011;66141;7.324;79.980;2023-01-16T00:11:00;7.90;;;4.97;;
77166;SDS011;66141;7.324;79.980;2023-01-16T00:11:05;9.07;;;5.00;;
77166;SDS011;66141;7.324;79.980;2023-01-16T00:11:11;8.98;;;4.82;;
77166;SDS011;66141;7.324;79.980;2023-01-16T00:11:17;8.70;;;4.93;;
77166;SDS011;66141;7.324;79.980;2023-01-16T00:11:23;9.48;;;4.95;;
77166;SDS011;66141;7.324;79.980;2023-01-16T00:11:29;9.52;;;5.18;;
77166;SDS011;66141;7.324;79.980;2023-01-16T00:11:35;9.15;;;5.13;;
77166;SDS011;66141;7.324;79.980;2023-01-16T00:11:40;9.95;;;5.45;;
77166;SDS011;66141;7.324;79.980;2023-01-16T00:11:46;9.82;;;5.35;;
77166;SDS011;66141;7.324;79.980;2023-01-16T00:11:52;9.70;;;5.43;;
77166;SDS011;66141;7.324;79.980;2023-01-16T00:11:58;9.87;;;5.20;;
77166;SDS011;66141;7.324;79.980;2023-01-16T00:12:04;9.25;;;5.03;;
77166;SDS011;66141;7.324;79.980;2023-01-16T00:12:10;8.32;;;4.88;;
77166;SDS011;66141;7.324;79.980;2023-01-16T00:12:16;9.35;;;4.97;;
77166;SDS011;66141;7.324;79.980;2023-01-16T00:12:21;9.73;;;5.15;;
77166;SDS011;66141;7.324;79.980;2023-01-16T00:12:27;9.43;;;5.07;;
77166;SDS011;66141;7.324;79.980;2023-01-16T00:12:33;9.45;;;4.88;;
77166;SDS011;66141;7.324;79.980;2023-01-16T00:12:39;9.15;;;4.78;;
77166;SDS011;66141;7.324;79.980;2023-01-16T00:12:46;8.88;;;4.90;;
77166;SDS011;66141;7.324;79.980;2023-01-16T00:12:52;8.84;;;4.84;;
77166;SDS011;66141;7.324;79.980;2023-01-16T00:12:58;8.75;;;4.80;;
77166;SDS011;66141;7.324;79.980;2023-01-16T00:13:04;8.88;;;5.03;;
77166;SDS011;66141;7.324;79.980;2023-01-16T00:13:10;9.75;;;5.10;;
77166;SDS011;66141;7.324;79.980;2023-01-16T00:13:16;9.32;;;4.75;;
77166;SDS011;66141;7.324;79.980;2023-01-16T00:13:22;7.75;;;4.55;;
77166;SDS011;66141;7.324;79.980;2023-01-16T00:13:28;7.70;;;4.75;;
77166;SDS011;66141;7.324;79.980;2023-01-16T00:13:34;7.38;;;4.95;;
77166;SDS011;66141;7.324;79.980;2023-01-16T00:13:40;6.83;;;4.93;;
77166;SDS011;66141;7.324;79.980;2023-01-16T00:13:45;6.85;;;5.20;;
77166;SDS011;66141;7.324;79.980;2023-01-16T00:13:51;6.80;;;5.20;;
77166;SDS011;66141;7.324;79.980;2023-01-16T00:13:58;7.00;;;5.03;;
77166;SDS011;66141;7.324;79.980;2023-01-16T00:14:04;7.23;;;4.90;;
77166;SDS011;66141;7.324;79.980;2023-01-16T00:14:10;6.78;;;4.78;;
77166;SDS011;66141;7.324;79.980;2023-01-16T00:14:16;7.18;;;4.63;;
77166;SDS011;66141;7.324;79.980;2023-01-16T00:14:22;7.43;;;4.80;;
77166;SDS011;66141;7.324;79.980;2023-01-16T00:14:28;7.22;;;4.93;;
77166;SDS011;66141;7.324;79.980;2023-01-16T00:14:35;7.28;;;4.88;;
77166;SDS011;66141;7.324;79.980;2023-01-16T00:14:41;8.85;;;4.97;;
77166;SDS011;66141;7.324;79.980;2023-01-16T00:14:46;8.48;;;4.85;;
77166;SDS011;66141;7.324;79.980;2023-01-16T00:14:52;8.30;;;4.78;;
77166;SDS011;66141;7.324;79.980;2023-01-16T00:14:58;9.18;;;4.85;;
77166;SDS011;66141;7.324;79.980;2023-01-16T00:15:04;9.50;;;4.87;;
77166;SDS011;66141;7.324;79.980;2023-01-16T00:15:10;7.80;;;4.82;;
77166;SDS011;66141;7.324;79.980;2023-01-16T00:15:16;7.90;;;5.00;;
77166;SDS011;66141;7.324;79.980;2023-01-16T00:15:21;8.18;;;5.10;;
77166;SDS011;66141;7.324;79.980;2023-01-16T00:15:27;8.23;;;5.28;;
77166;SDS011;66141;7.324;79.980;2023-01-16T00:15:33;7.57;;;5.10;;
77166;SDS011;66141;7.324;79.980;2023-01-16T00:15:45;8.63;;;5.00;;
77166;SDS011;66141;7.324;79.980;2023-01-16T00:15:51;8.44;;;5.10;;
77166;SDS011;66141;7.324;79.980;2023-01-16T00:15:57;8.37;;;5.20;;
77166;SDS011;66141;7.324;79.980;2023-01-16T00:16:03;8.70;;;5.33;;
77166;SDS011;66141;7.324;79.980;2023-01-16T00:16:09;8.23;;;5.47;;
77166;SDS011;66141;7.324;79.980;2023-01-16T00:16:15;8.68;;;5.40;;
77166;SDS011;66141;7.324;79.980;2023-01-16T00:16:24;8.60;;;5.11;;
77166;SDS011;66141;7.324;79.980;2023-01-16T00:16:30;9.17;;;5.00;;
77166;SDS011;66141;7.324;79.980;2023-01-16T00:16:36;9.18;;;5.03;;
77166;SDS011;66141;7.324;79.980;2023-01-16T00:16:42;8.98;;;5.20;;
77166;SDS011;66141;7.324;79.980;2023-01-16T00:16:47;9.38;;;5.13;;
77166;SDS011;66141;7.324;79.980;2023-01-16T00:16:53;9.57;;;5.33;;
77166;SDS011;66141;7.324;79.980;2023-01-16T00:16:59;8.77;;;5.35;;
77166;SDS011;66141;7.324;79.980;2023-01-16T00:17:05;8.27;;;5.22;;
77166;SDS011;66141;7.324;79.980;2023-01-16T00:17:11;8.05;;;5.10;;
77166;SDS011;66141;7.324;79.980;2023-01-16T00:17:16;7.80;;;5.20;;
77166;SDS011;66141;7.324;79.980;2023-01-16T00:17:22;8.00;;;5.22;;
77166;SDS011;66141;7.324;79.980;2023-01-16T00:17:28;8.15;;;5.38;;
77166;SDS011;66141;7.324;79.980;2023-01-16T00:17:34;8.32;;;5.40;;
77166;SDS011;66141;7.324;79.980;2023-01-16T00:17:40;8.88;;;5.65;;
77166;SDS011;66141;7.324;79.980;2023-01-16T00:17:45;9.20;;;5.73;;
77166;SDS011;66141;7.324;79.980;2023-01-16T00:17:53;8.87;;;5.57;;
77166;SDS011;66141;7.324;79.980;2023-01-16T00:17:58;9.00;;;5.33;;
77166;SDS011;66141;7.324;79.980;2023-01-16T00:18:04;9.70;;;5.30;;
77166;SDS011;66141;7.324;79.980;2023-01-16T00:18:10;9.55;;;5.07;;
77166;SDS011;66141;7.324;79.980;2023-01-16T00:18:16;9.05;;;5.00;;
77166;SDS011;66141;7.324;79.980;2023-01-16T00:18:22;8.93;;;4.97;;
77166;SDS011;66141;7.324;79.980;2023-01-16T00:18:28;8.57;;;5.13;;
77166;SDS011;66141;7.324;79.980;2023-01-16T00:18:34;8.88;;;5.35;;
77166;SDS011;66141;7.324;79.980;2023-01-16T00:18:40;8.33;;;5.23;;
77166;SDS011;66141;7.324;79.980;2023-01-16T00:18:46;9.00;;;5.40;;
77166;SDS011;66141;7.324;79.980;2023-01-16T00:18:52;9.15;;;5.53;;
77166;SDS011;66141;7.324;79.980;2023-01-16T00:18:58;8.85;;;5.32;;
77166;SDS011;66141;7.324;79.980;2023-01-16T00:19:04;7.50;;;5.10;;
77166;SDS011;66141;7.324;79.980;2023-01-16T00:19:10;8.00;;;5.18;;
77166;SDS011;66141;7.324;79.980;2023-01-16T00:19:16;7.60;;;5.03;;
77166;SDS011;66141;7.324;79.980;2023-01-16T00:19:22;7.37;;;5.03;;
77166;SDS011;66141;7.324;79.980;2023-01-16T00:19:27;7.95;;;5.13;;
77166;SDS011;66141;7.324;79.980;2023-01-16T00:19:33;8.52;;;5.28;;
77166;SDS011;66141;7.324;79.980;2023-01-16T00:19:39;9.13;;;5.63;;
77166;SDS011;66141;7.324;79.980;2023-01-16T00:19:45;9.30;;;5.53;;
77166;SDS011;66141;7.324;79.980;2023-01-16T00:19:51;10.23;;;5.40;;
77166;SDS011;66141;7.324;79.980;2023-01-16T00:19:57;10.82;;;5.65;;
77166;SDS011;66141;7.324;79.980;2023-01-16T00:20:02;11.07;;;5.82;;
77166;SDS011;66141;7.324;79.980;2023-01-16T00:20:09;10.55;;;5.63;;
77166;SDS011;66141;7.324;79.980;2023-01-16T00:20:15;9.95;;;5.65;;
77166;SDS011;66141;7.324;79.980;2023-01-16T00:20:21;9.77;;;5.70;;
77166;SDS011;66141;7.324;79.980;2023-01-16T00:20:27;9.25;;;5.50;;
77166;SDS011;66141;7.324;79.980;2023-01-16T00:20:33;8.88;;;5.30;;
77166;SDS011;66141;7.324;79.980;2023-01-16T00:20:38;9.30;;;5.50;;
77166;SDS011;66141;7.324;79.980;2023-01-16T00:20:45;9.88;;;6.00;;
77166;SDS011;66141;7.324;79.980;2023-01-16T00:20:51;9.03;;;5.87;;
77166;SDS011;66141;7.324;79.980;2023-01-16T00:20:57;9.07;;;5.80;;
77166;SDS011;66141;7.324;79.980;2023-01-16T00:21:03;9.77;;;5.93;;
77166;SDS011;66141;7.324;79.980;2023-01-16T00:21:09;8.95;;;5.53;;
77166;SDS011;66141;7.324;79.980;2023-01-16T00:21:15;8.45;;;5.18;;
77166;SDS011;66141;7.324;79.980;2023-01-16T00:21:21;8.60;;;5.20;;
77166;SDS011;66141;7.324;79.980;2023-01-16T00:21:29;8.64;;;5.24;;
77166;SDS011;66141;7.324;79.980;2023-01-16T00:21:35;8.33;;;5.33;;
77166;SDS011;66141;7.324;79.980;2023-01-16T00:21:41;9.15;;;5.45;;
77166;SDS011;66141;7.324;79.980;2023-01-16T00:21:47;9.13;;;5.38;;
77166;SDS011;66141;7.324;79.980;2023-01-16T00:21:53;9.48;;;5.47;;
77166;SDS011;66141;7.324;79.980;2023-01-16T00:21:59;8.90;;;5.47;;
77166;SDS011;66141;7.324;79.980;2023-01-16T00:22:04;9.17;;;5.57;;
77166;SDS011;66141;7.324;79.980;2023-01-16T00:22:10;8.82;;;5.57;;
77166;SDS011;66141;7.324;79.980;2023-01-16T00:22:16;8.25;;;5.38;;
77166;SDS011;66141;7.324;79.980;2023-01-16T00:22:22;7.78;;;5.38;;
77166;SDS011;66141;7.324;79.980;2023-01-16T00:22:28;8.18;;;5.45;;
77166;SDS011;66141;7.324;79.980;2023-01-16T00:22:33;8.23;;;5.23;;
77166;SDS011;66141;7.324;79.980;2023-01-16T00:22:39;8.48;;;5.28;;
77166;SDS011;66141;7.324;79.980;2023-01-16T00:22:45;8.85;;;5.50;;
77166;SDS011;66141;7.324;79.980;2023-01-16T00:22:51;9.13;;;5.75;;
77166;SDS011;66141;7.324;79.980;2023-01-16T00:22:57;9.00;;;5.57;;
77166;SDS011;66141;7.324;79.980;2023-01-16T00:23:02;8.90;;;5.47;;
77166;SDS011;66141;7.324;79.980;2023-01-16T00:23:09;8.90;;;5.60;;
77166;SDS011;66141;7.324;79.980;2023-01-16T00:23:15;8.68;;;5.58;;
77166;SDS011;66141;7.324;79.980;2023-01-16T00:23:21;8.48;;;5.47;;
77166;SDS011;66141;7.324;79.980;2023-01-16T00:23:27;8.82;;;5.75;;
77166;SDS011;66141;7.324;79.980;2023-01-16T00:23:33;8.87;;;5.67;;
77166;SDS011;66141;7.324;79.980;2023-01-16T00:23:38;8.70;;;5.47;;
77166;SDS011;66141;7.324;79.980;2023-01-16T00:23:45;8.45;;;5.35;;
77166;SDS011;66141;7.324;79.980;2023-01-16T00:23:51;8.47;;;5.27;;
77166;SDS011;66141;7.324;79.980;2023-01-16T00:23:57;7.68;;;5.00;;
77166;SDS011;66141;7.324;79.980;2023-01-16T00:24:03;7.53;;;5.27;;
77166;SDS011;66141;7.324;79.980;2023-01-16T00:24:11;7.95;;;5.27;;
77166;SDS011;66141;7.324;79.980;2023-01-16T00:24:17;8.20;;;5.13;;
77166;SDS011;66141;7.324;79.980;2023-01-16T00:24:23;8.63;;;5.20;;
77166;SDS011;66141;7.324;79.980;2023-01-16T00:24:28;9.15;;;5.32;;
77166;SDS011;66141;7.324;79.980;2023-01-16T00:24:34;9.60;;;5.22;;
77166;SDS011;66141;7.324;79.980;2023-01-16T00:24:40;9.05;;;5.22;;
77166;SDS011;66141;7.324;79.980;2023-01-16T00:24:46;9.03;;;5.37;;
77166;SDS011;66141;7.324;79.980;2023-01-16T00:24:52;9.00;;;5.57;;
77166;SDS011;66141;7.324;79.980;2023-01-16T00:24:57;9.52;;;5.60;;
77166;SDS011;66141;7.324;79.980;2023-01-16T00:25:03;9.52;;;5.72;;
77166;SDS011;66141;7.324;79.980;2023-01-16T00:25:09;9.95;;;5.72;;
77166;SDS011;66141;7.324;79.980;2023-01-16T00:25:15;11.07;;;5.83;;
77166;SDS011;66141;7.324;79.980;2023-01-16T00:25:21;11.52;;;5.70;;
77166;SDS011;66141;7.324;79.980;2023-01-16T00:25:27;11.27;;;5.55;;
77166;SDS011;66141;7.324;79.980;2023-01-16T00:25:33;10.85;;;5.43;;
77166;SDS011;66141;7.324;79.980;2023-01-16T00:25:43;10.10;;;5.60;;
77166;SDS011;66141;7.324;79.980;2023-01-16T00:25:49;8.53;;;5.43;;
77166;SDS011;66141;7.324;79.980;2023-01-16T00:25:54;8.27;;;5.65;;
77166;SDS011;66141;7.324;79.980;2023-01-16T00:26:03;8.67;;;5.80;;
77166;SDS011;66141;7.324;79.980;2023-01-16T00:26:09;9.00;;;5.47;;
77166;SDS011;66141;7.324;79.980;2023-01-16T00:26:17;9.02;;;5.22;;
77166;SDS011;66141;7.324;79.980;2023-01-16T00:26:23;8.38;;;4.85;;
77166;SDS011;66141;7.324;79.980;2023-01-16T00:26:29;8.60;;;4.68;;
77166;SDS011;66141;7.324;79.980;2023-01-16T00:26:35;8.52;;;4.78;;
77166;SDS011;66141;7.324;79.980;2023-01-16T00:26:41;9.18;;;4.95;;
77166;SDS011;66141;7.324;79.980;2023-01-16T00:26:49;9.88;;;5.30;;
77166;SDS011;66141;7.324;79.980;2023-01-16T00:26:55;11.43;;;5.85;;
77166;SDS011;66141;7.324;79.980;2023-01-16T00:27:01;11.02;;;5.90;;
77166;SDS011;66141;7.324;79.980;2023-01-16T00:27:07;11.35;;;5.97;;
77166;SDS011;66141;7.324;79.980;2023-01-16T00:27:13;10.90;;;5.90;;
77166;SDS011;66141;7.324;79.980;2023-01-16T00:27:19;11.00;;;5.88;;
77166;SDS011;66141;7.324;79.980;2023-01-16T00:27:25;9.48;;;5.70;;
77166;SDS011;66141;7.324;79.980;2023-01-16T00:27:31;9.32;;;5.65;;
77166;SDS011;66141;7.324;79.980;2023-01-16T00:27:37;10.50;;;5.70;;
77166;SDS011;66141;7.324;79.980;2023-01-16T00:27:42;10.90;;;6.05;;
77166;SDS011;66141;7.324;79.980;2023-01-16T00:27:48;10.98;;;6.32;;
77166;SDS011;66141;7.324;79.980;2023-01-16T00:27:54;11.13;;;6.35;;
77166;SDS011;66141;7.324;79.980;2023-01-16T00:28:00;11.18;;;6.32;;
77166;SDS011;66141;7.324;79.980;2023-01-16T00:28:06;10.23;;;6.23;;
77166;SDS011;66141;7.324;79.980;2023-01-16T00:28:12;8.88;;;5.82;;
77166;SDS011;66141;7.324;79.980;2023-01-16T00:28:18;9.00;;;5.67;;
77166;SDS011;66141;7.324;79.980;2023-01-16T00:28:24;8.90;;;5.78;;
77166;SDS011;66141;7.324;79.980;2023-01-16T00:28:30;8.93;;;5.67;;
77166;SDS011;66141;7.324;79.980;2023-01-16T00:28:38;8.97;;;5.65;;
77166;SDS011;66141;7.324;79.980;2023-01-16T00:28:43;9.25;;;5.78;;
77166;SDS011;66141;7.324;79.980;2023-01-16T00:28:49;8.40;;;5.68;;
77166;SDS011;66141;7.324;79.980;2023-01-16T00:28:55;10.05;;;5.45;;
77166;SDS011;66141;7.324;79.980;2023-01-16T00:29:01;10.07;;;5.63;;
77166;SDS011;66141;7.324;79.980;2023-01-16T00:29:07;10.95;;;5.97;;
77166;SDS011;66141;7.324;79.980;2023-01-16T00:29:13;10.97;;;5.97;;
77166;SDS011;66141;7.324;79.980;2023-01-16T00:29:19;11.57;;;5.95;;
77166;SDS011;66141;7.324;79.980;2023-01-16T00:29:24;10.52;;;6.03;;
77166;SDS011;66141;7.324;79.980;2023-01-16T00:29:30;10.88;;;6.00;;
77166;SDS011;66141;7.324;79.980;2023-01-16T00:29:36;10.45;;;5.78;;
77166;SDS011;66141;7.324;79.980;2023-01-16T00:29:42;10.87;;;6.00;;
77166;SDS011;66141;7.324;79.980;2023-01-16T00:29:48;10.68;;;6.05;;
77166;SDS011;66141;7.324;79.980;2023-01-16T00:29:54;11.20;;;6.13;;
77166;SDS011;66141;7.324;79.980;2023-01-16T00:29:59;11.93;;;6.45;;
77166;SDS011;66141;7.324;79.980;2023-01-16T00:30:05;11.10;;;6.20;;
77166;SDS011;66141;7.324;79.980;2023-01-16T00:30:12;10.84;;;5.84;;
77166;SDS011;66141;7.324;79.980;2023-01-16T00:30:18;10.90;;;6.00;;
77166;SDS011;66141;7.324;79.980;2023-01-16T00:30:24;9.17;;;5.63;;
77166;SDS011;66141;7.324;79.980;2023-01-16T00:30:30;8.60;;;5.37;;
77166;SDS011;66141;7.324;79.980;2023-01-16T00:30:36;9.20;;;5.45;;
77166;SDS011;66141;7.324;79.980;2023-01-16T00:30:42;8.67;;;5.37;;
77166;SDS011;66141;7.324;79.980;2023-01-16T00:30:48;8.30;;;5.00;;
77166;SDS011;66141;7.324;79.980;2023-01-16T00:30:54;8.98;;;5.13;;
77166;SDS011;66141;7.324;79.980;2023-01-16T00:30:59;9.27;;;5.33;;
77166;SDS011;66141;7.324;79.980;2023-01-16T00:31:05;9.20;;;5.40;;
77166;SDS011;66141;7.324;79.980;2023-01-16T00:31:11;10.47;;;5.60;;
77166;SDS011;66141;7.324;79.980;2023-01-16T00:31:17;10.73;;;5.53;;
77166;SDS011;66141;7.324;79.980;2023-01-16T00:31:23;10.07;;;5.55;;
77166;SDS011;66141;7.324;79.980;2023-01-16T00:31:30;9.58;;;5.56;;
77166;SDS011;66141;7.324;79.980;2023-01-16T00:31:36;9.50;;;5.55;;
77166;SDS011;66141;7.324;79.980;2023-01-16T00:31:42;8.90;;;5.60;;
77166;SDS011;66141;7.324;79.980;2023-01-16T00:31:47;9.15;;;5.75;;
77166;SDS011;66141;7.324;79.980;2023-01-16T00:31:53;9.93;;;5.63;;
77166;SDS011;66141;7.324;79.980;2023-01-16T00:31:59;10.50;;;5.80;;
77166;SDS011;66141;7.324;79.980;2023-01-16T00:32:05;10.32;;;6.00;;
77166;SDS011;66141;7.324;79.980;2023-01-16T00:32:10;9.93;;;5.83;;
77166;SDS011;66141;7.324;79.980;2023-01-16T00:32:16;10.20;;;5.70;;
77166;SDS011;66141;7.324;79.980;2023-01-16T00:32:22;9.77;;;5.68;;
77166;SDS011;66141;7.324;79.980;2023-01-16T00:32:28;10.13;;;5.53;;
77166;SDS011;66141;7.324;79.980;2023-01-16T00:32:34;10.63;;;5.35;;
77166;SDS011;66141;7.324;79.980;2023-01-16T00:32:40;10.97;;;5.37;;
77166;SDS011;66141;7.324;79.980;2023-01-16T00:32:45;10.45;;;5.53;;
77166;SDS011;66141;7.324;79.980;2023-01-16T00:32:51;10.10;;;5.63;;
77166;SDS011;66141;7.324;79.980;2023-01-16T00:32:57;9.63;;;5.60;;
77166;SDS011;66141;7.324;79.980;2023-01-16T00:33:03;8.97;;;5.47;;
77166;SDS011;66141;7.324;79.980;2023-01-16T00:33:09;8.30;;;5.27;;
77166;SDS011;66141;7.324;79.980;2023-01-16T00:33:15;8.13;;;5.17;;
77166;SDS011;66141;7.324;79.980;2023-01-16T00:33:21;9.17;;;5.10;;
77166;SDS011;66141;7.324;79.980;2023-01-16T00:33:27;9.47;;;5.13;;
77166;SDS011;66141;7.324;79.980;2023-01-16T00:33:33;10.30;;;5.20;;
77166;SDS011;66141;7.324;79.980;2023-01-16T00:33:39;11.20;;;5.50;;
77166;SDS011;66141;7.324;79.980;2023-01-16T00:33:45;11.68;;;5.70;;
77166;SDS011;66141;7.324;79.980;2023-01-16T00:33:51;11.38;;;5.82;;
77166;SDS011;66141;7.324;79.980;2023-01-16T00:33:57;11.55;;;5.85;;
77166;SDS011;66141;7.324;79.980;2023-01-16T00:34:03;10.68;;;5.72;;
77166;SDS011;66141;7.324;79.980;2023-01-16T00:34:08;9.95;;;5.53;;
77166;SDS011;66141;7.324;79.980;2023-01-16T00:34:14;9.80;;;5.55;;
77166;SDS011;66141;7.324;79.980;2023-01-16T00:34:20;9.77;;;5.53;;
77166;SDS011;66141;7.324;79.980;2023-01-16T00:34:26;9.27;;;5.28;;
77166;SDS011;66141;7.324;79.980;2023-01-16T00:34:32;9.57;;;5.55;;
77166;SDS011;66141;7.324;79.980;2023-01-16T00:34:37;10.75;;;5.68;;
77166;SDS011;66141;7.324;79.980;2023-01-16T00:34:43;10.23;;;5.47;;
77166;SDS011;66141;7.324;79.980;2023-01-16T00:34:49;10.35;;;5.55;;
77166;SDS011;66141;7.324;79.980;2023-01-16T00:34:55;10.30;;;5.90;;
77166;SDS011;66141;7.324;79.980;2023-01-16T00:35:01;10.25;;;5.80;;
77166;SDS011;66141;7.324;79.980;2023-01-16T00:35:08;9.24;;;5.68;;
77166;SDS011;66141;7.324;79.980;2023-01-16T00:35:13;9.70;;;6.05;;
77166;SDS011;66141;7.324;79.980;2023-01-16T00:35:19;10.03;;;6.20;;
77166;SDS011;66141;7.324;79.980;2023-01-16T00:35:25;10.27;;;6.15;;
77166;SDS011;66141;7.324;79.980;2023-01-16T00:35:34;9.90;;;5.97;;
77166;SDS011;66141;7.324;79.980;2023-01-16T00:35:40;10.27;;;6.07;;
77166;SDS011;66141;7.324;79.980;2023-01-16T00:35:46;10.68;;;6.18;;
77166;SDS011;66141;7.324;79.980;2023-01-16T00:35:52;10.27;;;6.13;;
77166;SDS011;66141;7.324;79.980;2023-01-16T00:35:59;10.73;;;6.30;;
77166;SDS011;66141;7.324;79.980;2023-01-16T00:36:05;11.22;;;6.50;;